sensor_id;sensor_type;location;lat;lon;timestamp;P1;durP1;ratioP1;P2;durP2;ratioP2
79202;SDS011;68630;42.748;23.278;2024-02-16T00:01:49;40.20;;;17.67;;
79202;SDS011;68630;42.748;23.278;2024-02-16T00:07:27;37.83;;;17.45;;
79202;SDS011;68630;42.748;23.278;2024-02-16T00:35:45;33.35;;;14.78;;
79202;SDS011;68630;42.748;23.278;2024-02-16T00:46:56;30.62;;;14.75;;
79202;SDS011;68630;42.748;23.278;2024-02-16T00:52:37;32.90;;;15.23;;
79202;SDS011;68630;42.748;23.278;2024-02-16T00:55:05;35.80;;;14.85;;
79202;SDS011;68630;42.748;23.278;2024-02-16T01:03:12;31.33;;;14.85;;
79202;SDS011;68630;42.748;23.278;2024-02-16T01:08:27;32.93;;;14.20;;
79202;SDS011;68630;42.748;23.278;2024-02-16T01:11:18;35.55;;;14.65;;
79202;SDS011;68630;42.748;23.278;2024-02-16T01:14:04;31.85;;;13.70;;
79202;SDS011;68630;42.748;23.278;2024-02-16T01:19:08;31.00;;;13.93;;
79202;SDS011;68630;42.748;23.278;2024-02-16T01:24:44;43.90;;;14.23;;
79202;SDS011;68630;42.748;23.278;2024-02-16T01:30:11;30.08;;;14.43;;
79202;SDS011;68630;42.748;23.278;2024-02-16T01:33:06;33.02;;;15.23;;
79202;SDS011;68630;42.748;23.278;2024-02-16T01:38:46;38.98;;;15.98;;
79202;SDS011;68630;42.748;23.278;2024-02-16T01:41:38;43.13;;;15.25;;
79202;SDS011;68630;42.748;23.278;2024-02-16T01:50:27;37.20;;;15.23;;
79202;SDS011;68630;42.748;23.278;2024-02-16T01:53:16;33.85;;;15.80;;
79202;SDS011;68630;42.748;23.278;2024-02-16T01:56:19;40.90;;;14.40;;
79202;SDS011;68630;42.748;23.278;2024-02-16T01:58:52;37.78;;;15.20;;
79202;SDS011;68630;42.748;23.278;2024-02-16T02:01:50;33.65;;;15.45;;
79202;SDS011;68630;42.748;23.278;2024-02-16T02:07:48;29.48;;;14.45;;
79202;SDS011;68630;42.748;23.278;2024-02-16T02:15:43;29.25;;;14.23;;
79202;SDS011;68630;42.748;23.278;2024-02-16T02:18:47;29.18;;;13.55;;
79202;SDS011;68630;42.748;23.278;2024-02-16T02:29:38;37.45;;;15.83;;
79202;SDS011;68630;42.748;23.278;2024-02-16T02:32:08;40.88;;;16.97;;
79202;SDS011;68630;42.748;23.278;2024-02-16T02:37:40;34.95;;;14.25;;
79202;SDS011;68630;42.748;23.278;2024-02-16T02:40:08;35.63;;;16.02;;
79202;SDS011;68630;42.748;23.278;2024-02-16T02:48:18;36.20;;;15.18;;
79202;SDS011;68630;42.748;23.278;2024-02-16T02:51:14;41.63;;;15.53;;
79202;SDS011;68630;42.748;23.278;2024-02-16T02:53:47;34.90;;;15.35;;
79202;SDS011;68630;42.748;23.278;2024-02-16T02:56:34;32.70;;;13.80;;
79202;SDS011;68630;42.748;23.278;2024-02-16T02:59:02;31.75;;;14.30;;
79202;SDS011;68630;42.748;23.278;2024-02-16T03:04:36;36.98;;;13.58;;
79202;SDS011;68630;42.748;23.278;2024-02-16T03:10:08;47.98;;;19.12;;
79202;SDS011;68630;42.748;23.278;2024-02-16T03:12:39;35.73;;;14.15;;
79202;SDS011;68630;42.748;23.278;2024-02-16T03:15:19;32.90;;;15.10;;
79202;SDS011;68630;42.748;23.278;2024-02-16T03:17:54;35.92;;;16.00;;
79202;SDS011;68630;42.748;23.278;2024-02-16T03:23:25;31.85;;;14.98;;
79202;SDS011;68630;42.748;23.278;2024-02-16T03:28:38;36.80;;;15.35;;
79202;SDS011;68630;42.748;23.278;2024-02-16T03:44:24;32.48;;;14.85;;
79202;SDS011;68630;42.748;23.278;2024-02-16T03:52:19;33.83;;;14.25;;
79202;SDS011;68630;42.748;23.278;2024-02-16T03:55:11;28.90;;;13.65;;
79202;SDS011;68630;42.748;23.278;2024-02-16T03:57:57;32.40;;;13.53;;
79202;SDS011;68630;42.748;23.278;2024-02-16T04:00:52;29.50;;;14.30;;
79202;SDS011;68630;42.748;23.278;2024-02-16T04:03:50;38.17;;;14.10;;
79202;SDS011;68630;42.748;23.278;2024-02-16T04:06:48;41.00;;;15.32;;
79202;SDS011;68630;42.748;23.278;2024-02-16T04:09:39;32.50;;;15.58;;
79202;SDS011;68630;42.748;23.278;2024-02-16T04:15:28;28.60;;;14.35;;
79202;SDS011;68630;42.748;23.278;2024-02-16T04:18:18;37.65;;;15.18;;
79202;SDS011;68630;42.748;23.278;2024-02-16T04:20:53;37.50;;;15.58;;
79202;SDS011;68630;42.748;23.278;2024-02-16T04:37:27;41.10;;;17.32;;
79202;SDS011;68630;42.748;23.278;2024-02-16T04:40:23;36.00;;;15.30;;
79202;SDS011;68630;42.748;23.278;2024-02-16T04:42:51;42.65;;;15.15;;
79202;SDS011;68630;42.748;23.278;2024-02-16T04:54:14;44.03;;;17.80;;
79202;SDS011;68630;42.748;23.278;2024-02-16T04:57:12;52.08;;;20.52;;
79202;SDS011;68630;42.748;23.278;2024-02-16T05:02:58;41.33;;;18.92;;
79202;SDS011;68630;42.748;23.278;2024-02-16T05:08:49;47.67;;;20.30;;
79202;SDS011;68630;42.748;23.278;2024-02-16T05:11:16;56.05;;;20.72;;
79202;SDS011;68630;42.748;23.278;2024-02-16T05:16:51;58.75;;;22.10;;
79202;SDS011;68630;42.748;23.278;2024-02-16T05:22:29;50.75;;;21.17;;
79202;SDS011;68630;42.748;23.278;2024-02-16T05:30:35;54.77;;;21.70;;
79202;SDS011;68630;42.748;23.278;2024-02-16T05:33:03;63.68;;;21.82;;
79202;SDS011;68630;42.748;23.278;2024-02-16T05:35:31;61.73;;;22.52;;
79202;SDS011;68630;42.748;23.278;2024-02-16T05:38:02;65.83;;;25.95;;
79202;SDS011;68630;42.748;23.278;2024-02-16T05:51:34;60.33;;;20.77;;
79202;SDS011;68630;42.748;23.278;2024-02-16T07:05:46;50.63;;;19.65;;
79202;SDS011;68630;42.748;23.278;2024-02-16T07:08:44;53.28;;;21.37;;
79202;SDS011;68630;42.748;23.278;2024-02-16T07:11:14;45.58;;;19.52;;
79202;SDS011;68630;42.748;23.278;2024-02-16T07:13:48;30.95;;;14.63;;
79202;SDS011;68630;42.748;23.278;2024-02-16T07:16:19;36.03;;;15.48;;
79202;SDS011;68630;42.748;23.278;2024-02-16T07:18:53;41.45;;;15.50;;
79202;SDS011;68630;42.748;23.278;2024-02-16T07:21:31;32.90;;;14.30;;
79202;SDS011;68630;42.748;23.278;2024-02-16T07:24:09;33.25;;;12.70;;
79202;SDS011;68630;42.748;23.278;2024-02-16T07:26:44;27.25;;;11.78;;
79202;SDS011;68630;42.748;23.278;2024-02-16T07:29:25;21.48;;;9.33;;
79202;SDS011;68630;42.748;23.278;2024-02-16T07:31:57;19.48;;;9.85;;
79202;SDS011;68630;42.748;23.278;2024-02-16T07:34:26;19.42;;;9.48;;
79202;SDS011;68630;42.748;23.278;2024-02-16T07:37:00;26.68;;;10.53;;
79202;SDS011;68630;42.748;23.278;2024-02-16T07:39:34;26.75;;;10.63;;
79202;SDS011;68630;42.748;23.278;2024-02-16T07:45:13;20.45;;;10.60;;
79202;SDS011;68630;42.748;23.278;2024-02-16T07:47:41;17.75;;;9.78;;
79202;SDS011;68630;42.748;23.278;2024-02-16T07:50:09;20.30;;;10.28;;
79202;SDS011;68630;42.748;23.278;2024-02-16T07:52:42;16.48;;;9.35;;
79202;SDS011;68630;42.748;23.278;2024-02-16T07:55:10;21.65;;;9.18;;
79202;SDS011;68630;42.748;23.278;2024-02-16T07:57:38;12.85;;;8.20;;
79202;SDS011;68630;42.748;23.278;2024-02-16T08:00:08;14.13;;;8.15;;
79202;SDS011;68630;42.748;23.278;2024-02-16T08:02:38;23.18;;;9.15;;
79202;SDS011;68630;42.748;23.278;2024-02-16T08:08:13;20.80;;;10.82;;
79202;SDS011;68630;42.748;23.278;2024-02-16T08:10:42;24.40;;;10.85;;
79202;SDS011;68630;42.748;23.278;2024-02-16T08:13:11;28.12;;;11.48;;
79202;SDS011;68630;42.748;23.278;2024-02-16T08:15:41;27.30;;;11.68;;
79202;SDS011;68630;42.748;23.278;2024-02-16T08:18:18;24.20;;;11.43;;
79202;SDS011;68630;42.748;23.278;2024-02-16T08:20:46;24.95;;;11.43;;
79202;SDS011;68630;42.748;23.278;2024-02-16T08:23:19;33.00;;;13.68;;
79202;SDS011;68630;42.748;23.278;2024-02-16T08:25:46;34.58;;;13.03;;
79202;SDS011;68630;42.748;23.278;2024-02-16T08:28:15;32.28;;;12.13;;
79202;SDS011;68630;42.748;23.278;2024-02-16T08:33:24;30.40;;;12.15;;
79202;SDS011;68630;42.748;23.278;2024-02-16T08:42:42;28.55;;;12.53;;
79202;SDS011;68630;42.748;23.278;2024-02-16T08:45:29;28.52;;;13.88;;
79202;SDS011;68630;42.748;23.278;2024-02-16T09:30:54;19.65;;;9.45;;
79202;SDS011;68630;42.748;23.278;2024-02-16T09:33:21;9.70;;;6.55;;
79202;SDS011;68630;42.748;23.278;2024-02-16T09:35:50;16.67;;;7.35;;
79202;SDS011;68630;42.748;23.278;2024-02-16T09:38:40;19.55;;;7.80;;
79202;SDS011;68630;42.748;23.278;2024-02-16T09:41:09;18.60;;;7.60;;
79202;SDS011;68630;42.748;23.278;2024-02-16T09:43:36;12.78;;;5.50;;
79202;SDS011;68630;42.748;23.278;2024-02-16T09:48:41;16.82;;;6.95;;
79202;SDS011;68630;42.748;23.278;2024-02-16T09:51:30;18.12;;;5.70;;
79202;SDS011;68630;42.748;23.278;2024-02-16T09:54:09;12.10;;;5.20;;
79202;SDS011;68630;42.748;23.278;2024-02-16T09:56:46;11.38;;;5.35;;
79202;SDS011;68630;42.748;23.278;2024-02-16T09:59:45;21.45;;;6.65;;
79202;SDS011;68630;42.748;23.278;2024-02-16T10:02:13;17.98;;;6.17;;
79202;SDS011;68630;42.748;23.278;2024-02-16T10:07:19;7.33;;;5.33;;
79202;SDS011;68630;42.748;23.278;2024-02-16T10:09:48;13.15;;;4.85;;
79202;SDS011;68630;42.748;23.278;2024-02-16T10:12:18;10.85;;;5.53;;
79202;SDS011;68630;42.748;23.278;2024-02-16T10:14:53;16.23;;;5.10;;
79202;SDS011;68630;42.748;23.278;2024-02-16T10:22:41;20.77;;;6.12;;
79202;SDS011;68630;42.748;23.278;2024-02-16T10:25:28;14.00;;;4.65;;
79202;SDS011;68630;42.748;23.278;2024-02-16T10:28:00;6.03;;;4.30;;
79202;SDS011;68630;42.748;23.278;2024-02-16T10:30:31;7.20;;;4.10;;
79202;SDS011;68630;42.748;23.278;2024-02-16T10:41:06;15.32;;;4.53;;
79202;SDS011;68630;42.748;23.278;2024-02-16T10:43:34;7.45;;;4.17;;
79202;SDS011;68630;42.748;23.278;2024-02-16T10:46:08;18.05;;;4.65;;
79202;SDS011;68630;42.748;23.278;2024-02-16T10:48:45;11.53;;;4.58;;
79202;SDS011;68630;42.748;23.278;2024-02-16T10:57:01;6.20;;;3.25;;
79202;SDS011;68630;42.748;23.278;2024-02-16T11:27:04;5.78;;;3.05;;
79202;SDS011;68630;42.748;23.278;2024-02-16T11:29:41;7.65;;;3.30;;
79202;SDS011;68630;42.748;23.278;2024-02-16T11:42:56;7.62;;;3.10;;
79202;SDS011;68630;42.748;23.278;2024-02-16T11:45:33;10.30;;;4.40;;
79202;SDS011;68630;42.748;23.278;2024-02-16T11:48:06;8.20;;;3.62;;
79202;SDS011;68630;42.748;23.278;2024-02-16T11:53:32;13.25;;;3.75;;
79202;SDS011;68630;42.748;23.278;2024-02-16T12:01:23;6.15;;;3.77;;
79202;SDS011;68630;42.748;23.278;2024-02-16T12:04:06;7.07;;;4.00;;
79202;SDS011;68630;42.748;23.278;2024-02-16T12:06:45;6.10;;;3.85;;
79202;SDS011;68630;42.748;23.278;2024-02-16T12:09:15;13.50;;;4.50;;
79202;SDS011;68630;42.748;23.278;2024-02-16T12:11:49;6.97;;;4.25;;
79202;SDS011;68630;42.748;23.278;2024-02-16T12:14:26;23.07;;;4.12;;
79202;SDS011;68630;42.748;23.278;2024-02-16T12:19:38;8.20;;;3.77;;
79202;SDS011;68630;42.748;23.278;2024-02-16T12:26:11;7.92;;;3.67;;
79202;SDS011;68630;42.748;23.278;2024-02-16T12:57:11;13.25;;;3.65;;
79202;SDS011;68630;42.748;23.278;2024-02-16T12:59:41;8.80;;;3.35;;
79202;SDS011;68630;42.748;23.278;2024-02-16T13:13:43;11.93;;;4.35;;
79202;SDS011;68630;42.748;23.278;2024-02-16T13:50:22;7.17;;;3.47;;
79202;SDS011;68630;42.748;23.278;2024-02-16T14:06:50;11.73;;;4.12;;
79202;SDS011;68630;42.748;23.278;2024-02-16T14:09:26;8.98;;;3.80;;
79202;SDS011;68630;42.748;23.278;2024-02-16T14:20:15;9.55;;;3.45;;
79202;SDS011;68630;42.748;23.278;2024-02-16T14:22:57;5.10;;;3.25;;
79202;SDS011;68630;42.748;23.278;2024-02-16T14:44:30;6.78;;;3.33;;
79202;SDS011;68630;42.748;23.278;2024-02-16T14:47:26;6.10;;;3.20;;
79202;SDS011;68630;42.748;23.278;2024-02-16T14:49:59;9.00;;;3.75;;
79202;SDS011;68630;42.748;23.278;2024-02-16T14:52:40;5.90;;;3.12;;
79202;SDS011;68630;42.748;23.278;2024-02-16T14:55:28;10.03;;;3.22;;
79202;SDS011;68630;42.748;23.278;2024-02-16T14:58:14;15.55;;;3.50;;
79202;SDS011;68630;42.748;23.278;2024-02-16T15:01:14;4.70;;;2.95;;
79202;SDS011;68630;42.748;23.278;2024-02-16T15:03:54;10.80;;;3.10;;
79202;SDS011;68630;42.748;23.278;2024-02-16T15:06:42;6.92;;;2.92;;
79202;SDS011;68630;42.748;23.278;2024-02-16T15:09:13;11.73;;;3.90;;
79202;SDS011;68630;42.748;23.278;2024-02-16T15:11:51;12.85;;;3.58;;
79202;SDS011;68630;42.748;23.278;2024-02-16T15:14:51;8.93;;;3.30;;
79202;SDS011;68630;42.748;23.278;2024-02-16T15:17:33;8.48;;;3.30;;
79202;SDS011;68630;42.748;23.278;2024-02-16T15:20:07;4.78;;;3.00;;
79202;SDS011;68630;42.748;23.278;2024-02-16T15:22:43;8.03;;;3.05;;
79202;SDS011;68630;42.748;23.278;2024-02-16T15:25:22;7.93;;;3.40;;
79202;SDS011;68630;42.748;23.278;2024-02-16T15:27:52;13.05;;;3.75;;
79202;SDS011;68630;42.748;23.278;2024-02-16T15:30:32;8.08;;;3.30;;
79202;SDS011;68630;42.748;23.278;2024-02-16T15:33:04;13.65;;;3.65;;
79202;SDS011;68630;42.748;23.278;2024-02-16T15:35:47;11.22;;;3.80;;
79202;SDS011;68630;42.748;23.278;2024-02-16T15:38:26;12.58;;;4.53;;
79202;SDS011;68630;42.748;23.278;2024-02-16T15:41:25;11.38;;;4.53;;
79202;SDS011;68630;42.748;23.278;2024-02-16T15:44:06;9.08;;;4.80;;
79202;SDS011;68630;42.748;23.278;2024-02-16T15:50:11;16.97;;;4.70;;
79202;SDS011;68630;42.748;23.278;2024-02-16T15:52:54;14.73;;;4.80;;
79202;SDS011;68630;42.748;23.278;2024-02-16T15:58:41;12.95;;;4.67;;
79202;SDS011;68630;42.748;23.278;2024-02-16T16:01:20;13.60;;;5.17;;
79202;SDS011;68630;42.748;23.278;2024-02-16T16:03:47;13.60;;;4.03;;
79202;SDS011;68630;42.748;23.278;2024-02-16T16:06:20;12.88;;;4.35;;
79202;SDS011;68630;42.748;23.278;2024-02-16T16:08:55;16.42;;;4.17;;
79202;SDS011;68630;42.748;23.278;2024-02-16T16:11:30;5.95;;;3.70;;
79202;SDS011;68630;42.748;23.278;2024-02-16T16:14:03;7.45;;;3.75;;
79202;SDS011;68630;42.748;23.278;2024-02-16T16:16:38;6.03;;;3.33;;
79202;SDS011;68630;42.748;23.278;2024-02-16T16:19:07;7.42;;;3.35;;
79202;SDS011;68630;42.748;23.278;2024-02-16T16:21:34;7.45;;;4.47;;
79202;SDS011;68630;42.748;23.278;2024-02-16T16:24:05;6.50;;;3.72;;
79202;SDS011;68630;42.748;23.278;2024-02-16T16:26:38;6.83;;;3.40;;
79202;SDS011;68630;42.748;23.278;2024-02-16T16:29:10;5.92;;;3.10;;
79202;SDS011;68630;42.748;23.278;2024-02-16T16:31:44;5.12;;;3.15;;
79202;SDS011;68630;42.748;23.278;2024-02-16T16:34:20;4.97;;;3.10;;
79202;SDS011;68630;42.748;23.278;2024-02-16T16:36:55;9.15;;;3.37;;
79202;SDS011;68630;42.748;23.278;2024-02-16T16:39:29;7.90;;;3.77;;
79202;SDS011;68630;42.748;23.278;2024-02-16T16:42:00;13.08;;;4.12;;
79202;SDS011;68630;42.748;23.278;2024-02-16T16:44:30;11.60;;;5.45;;
79202;SDS011;68630;42.748;23.278;2024-02-16T16:46:57;18.87;;;5.75;;
79202;SDS011;68630;42.748;23.278;2024-02-16T16:49:25;12.85;;;5.67;;
79202;SDS011;68630;42.748;23.278;2024-02-16T16:51:57;20.92;;;5.30;;
79202;SDS011;68630;42.748;23.278;2024-02-16T16:54:38;22.48;;;6.55;;
79202;SDS011;68630;42.748;23.278;2024-02-16T16:57:11;19.02;;;6.15;;
79202;SDS011;68630;42.748;23.278;2024-02-16T16:59:42;14.23;;;7.40;;
79202;SDS011;68630;42.748;23.278;2024-02-16T17:02:17;17.87;;;6.67;;
79202;SDS011;68630;42.748;23.278;2024-02-16T17:04:53;27.82;;;7.78;;
79202;SDS011;68630;42.748;23.278;2024-02-16T17:07:27;24.25;;;8.15;;
79202;SDS011;68630;42.748;23.278;2024-02-16T17:09:57;26.10;;;8.65;;
79202;SDS011;68630;42.748;23.278;2024-02-16T17:12:32;32.50;;;9.75;;
79202;SDS011;68630;42.748;23.278;2024-02-16T17:15:01;36.38;;;9.48;;
79202;SDS011;68630;42.748;23.278;2024-02-16T17:17:38;39.85;;;10.58;;
79202;SDS011;68630;42.748;23.278;2024-02-16T17:20:14;26.33;;;10.68;;
79202;SDS011;68630;42.748;23.278;2024-02-16T17:22:47;32.70;;;13.20;;
79202;SDS011;68630;42.748;23.278;2024-02-16T17:25:19;31.82;;;9.48;;
79202;SDS011;68630;42.748;23.278;2024-02-16T17:27:53;18.75;;;8.45;;
79202;SDS011;68630;42.748;23.278;2024-02-16T17:30:23;23.87;;;8.33;;
79202;SDS011;68630;42.748;23.278;2024-02-16T17:33:03;18.17;;;8.63;;
79202;SDS011;68630;42.748;23.278;2024-02-16T17:35:45;15.25;;;8.40;;
79202;SDS011;68630;42.748;23.278;2024-02-16T17:38:16;21.87;;;8.63;;
79202;SDS011;68630;42.748;23.278;2024-02-16T17:40:49;24.20;;;9.05;;
79202;SDS011;68630;42.748;23.278;2024-02-16T17:43:27;22.55;;;8.35;;
79202;SDS011;68630;42.748;23.278;2024-02-16T17:46:02;18.12;;;8.30;;
79202;SDS011;68630;42.748;23.278;2024-02-16T17:48:32;19.23;;;6.28;;
79202;SDS011;68630;42.748;23.278;2024-02-16T17:51:09;12.53;;;6.70;;
79202;SDS011;68630;42.748;23.278;2024-02-16T17:53:56;13.68;;;6.85;;
79202;SDS011;68630;42.748;23.278;2024-02-16T17:56:41;19.82;;;6.85;;
79202;SDS011;68630;42.748;23.278;2024-02-16T17:59:16;19.67;;;8.45;;
79202;SDS011;68630;42.748;23.278;2024-02-16T18:01:48;29.80;;;10.13;;
79202;SDS011;68630;42.748;23.278;2024-02-16T18:04:21;14.63;;;7.05;;
79202;SDS011;68630;42.748;23.278;2024-02-16T18:06:56;15.13;;;7.80;;
79202;SDS011;68630;42.748;23.278;2024-02-16T18:09:29;32.25;;;8.48;;
79202;SDS011;68630;42.748;23.278;2024-02-16T18:12:00;22.07;;;8.18;;
79202;SDS011;68630;42.748;23.278;2024-02-16T18:14:31;32.60;;;8.98;;
79202;SDS011;68630;42.748;23.278;2024-02-16T18:22:16;18.77;;;7.90;;
79202;SDS011;68630;42.748;23.278;2024-02-16T18:24:55;27.07;;;9.60;;
79202;SDS011;68630;42.748;23.278;2024-02-16T18:36:24;64.47;;;10.38;;
79202;SDS011;68630;42.748;23.278;2024-02-16T18:39:01;88.97;;;11.60;;
79202;SDS011;68630;42.748;23.278;2024-02-16T18:41:37;69.62;;;10.38;;
79202;SDS011;68630;42.748;23.278;2024-02-16T18:44:09;45.88;;;9.48;;
79202;SDS011;68630;42.748;23.278;2024-02-16T18:46:54;26.93;;;8.90;;
79202;SDS011;68630;42.748;23.278;2024-02-16T18:49:33;34.50;;;8.70;;
79202;SDS011;68630;42.748;23.278;2024-02-16T18:52:02;28.77;;;8.00;;
79202;SDS011;68630;42.748;23.278;2024-02-16T18:54:33;30.72;;;9.30;;
79202;SDS011;68630;42.748;23.278;2024-02-16T18:57:01;26.40;;;8.05;;
79202;SDS011;68630;42.748;23.278;2024-02-16T18:59:42;28.55;;;8.28;;
79202;SDS011;68630;42.748;23.278;2024-02-16T19:02:29;17.12;;;7.83;;
79202;SDS011;68630;42.748;23.278;2024-02-16T19:05:32;14.53;;;6.80;;
79202;SDS011;68630;42.748;23.278;2024-02-16T19:08:13;14.43;;;6.28;;
79202;SDS011;68630;42.748;23.278;2024-02-16T19:10:53;13.70;;;6.00;;
79202;SDS011;68630;42.748;23.278;2024-02-16T19:13:29;13.53;;;6.20;;
79202;SDS011;68630;42.748;23.278;2024-02-16T19:16:11;13.40;;;6.50;;
79202;SDS011;68630;42.748;23.278;2024-02-16T19:18:45;14.28;;;6.37;;
79202;SDS011;68630;42.748;23.278;2024-02-16T19:21:20;25.35;;;9.80;;
79202;SDS011;68630;42.748;23.278;2024-02-16T19:23:52;30.02;;;10.88;;
79202;SDS011;68630;42.748;23.278;2024-02-16T19:26:34;26.93;;;11.75;;
79202;SDS011;68630;42.748;23.278;2024-02-16T19:29:05;39.18;;;12.63;;
79202;SDS011;68630;42.748;23.278;2024-02-16T19:31:38;39.10;;;14.45;;
79202;SDS011;68630;42.748;23.278;2024-02-16T19:40:25;17.15;;;7.78;;
79202;SDS011;68630;42.748;23.278;2024-02-16T19:43:07;21.57;;;8.70;;
79202;SDS011;68630;42.748;23.278;2024-02-16T19:45:40;21.62;;;8.53;;
79202;SDS011;68630;42.748;23.278;2024-02-16T19:48:11;19.00;;;9.05;;
79202;SDS011;68630;42.748;23.278;2024-02-16T19:50:48;19.82;;;9.28;;
79202;SDS011;68630;42.748;23.278;2024-02-16T19:56:48;25.85;;;10.48;;
79202;SDS011;68630;42.748;23.278;2024-02-16T20:02:54;19.07;;;8.85;;
79202;SDS011;68630;42.748;23.278;2024-02-16T20:05:26;19.60;;;8.30;;
79202;SDS011;68630;42.748;23.278;2024-02-16T20:08:22;15.83;;;7.72;;
79202;SDS011;68630;42.748;23.278;2024-02-16T20:11:00;17.15;;;7.65;;
79202;SDS011;68630;42.748;23.278;2024-02-16T20:13:38;15.55;;;8.85;;
79202;SDS011;68630;42.748;23.278;2024-02-16T20:16:14;20.10;;;10.10;;
79202;SDS011;68630;42.748;23.278;2024-02-16T20:18:50;21.73;;;9.00;;
79202;SDS011;68630;42.748;23.278;2024-02-16T20:21:35;25.88;;;12.35;;
79202;SDS011;68630;42.748;23.278;2024-02-16T20:24:12;29.42;;;14.43;;
79202;SDS011;68630;42.748;23.278;2024-02-16T20:29:41;37.83;;;15.43;;
79202;SDS011;68630;42.748;23.278;2024-02-16T20:34:47;40.78;;;16.60;;
79202;SDS011;68630;42.748;23.278;2024-02-16T20:37:27;49.53;;;19.80;;
79202;SDS011;68630;42.748;23.278;2024-02-16T20:40:01;35.68;;;16.97;;
79202;SDS011;68630;42.748;23.278;2024-02-16T20:45:22;53.23;;;20.75;;
79202;SDS011;68630;42.748;23.278;2024-02-16T20:48:12;34.53;;;15.60;;
79202;SDS011;68630;42.748;23.278;2024-02-16T20:50:47;108.22;;;49.77;;
79202;SDS011;68630;42.748;23.278;2024-02-16T20:53:26;133.50;;;66.80;;
79202;SDS011;68630;42.748;23.278;2024-02-16T20:55:57;47.03;;;24.02;;
79202;SDS011;68630;42.748;23.278;2024-02-16T20:58:36;112.95;;;50.92;;
79202;SDS011;68630;42.748;23.278;2024-02-16T21:01:14;81.25;;;39.53;;
79202;SDS011;68630;42.748;23.278;2024-02-16T21:03:55;117.60;;;47.70;;
79202;SDS011;68630;42.748;23.278;2024-02-16T21:06:46;95.05;;;45.12;;
79202;SDS011;68630;42.748;23.278;2024-02-16T21:09:31;102.55;;;43.52;;
79202;SDS011;68630;42.748;23.278;2024-02-16T21:12:13;41.53;;;18.85;;
79202;SDS011;68630;42.748;23.278;2024-02-16T21:14:52;64.85;;;29.55;;
79202;SDS011;68630;42.748;23.278;2024-02-16T21:17:32;88.03;;;41.28;;
79202;SDS011;68630;42.748;23.278;2024-02-16T21:20:16;92.75;;;39.70;;
79202;SDS011;68630;42.748;23.278;2024-02-16T21:23:02;93.15;;;38.73;;
79202;SDS011;68630;42.748;23.278;2024-02-16T21:28:58;74.20;;;31.73;;
79202;SDS011;68630;42.748;23.278;2024-02-16T21:31:43;84.47;;;30.70;;
79202;SDS011;68630;42.748;23.278;2024-02-16T21:34:32;81.92;;;29.12;;
79202;SDS011;68630;42.748;23.278;2024-02-16T21:40:21;62.25;;;26.52;;
79202;SDS011;68630;42.748;23.278;2024-02-16T21:43:12;67.27;;;26.82;;
79202;SDS011;68630;42.748;23.278;2024-02-16T21:46:03;62.30;;;24.80;;
79202;SDS011;68630;42.748;23.278;2024-02-16T21:48:43;68.47;;;26.52;;
79202;SDS011;68630;42.748;23.278;2024-02-16T21:51:26;62.35;;;24.65;;
79202;SDS011;68630;42.748;23.278;2024-02-16T21:54:04;55.45;;;22.55;;
79202;SDS011;68630;42.748;23.278;2024-02-16T21:56:44;27.00;;;12.03;;
79202;SDS011;68630;42.748;23.278;2024-02-16T21:59:19;16.82;;;9.00;;
79202;SDS011;68630;42.748;23.278;2024-02-16T22:01:54;24.20;;;10.40;;
79202;SDS011;68630;42.748;23.278;2024-02-16T22:04:30;50.52;;;22.80;;
79202;SDS011;68630;42.748;23.278;2024-02-16T22:07:09;66.15;;;27.25;;
79202;SDS011;68630;42.748;23.278;2024-02-16T22:10:00;71.92;;;28.52;;
79202;SDS011;68630;42.748;23.278;2024-02-16T22:12:51;69.75;;;26.95;;
79202;SDS011;68630;42.748;23.278;2024-02-16T22:15:32;69.65;;;25.62;;
79202;SDS011;68630;42.748;23.278;2024-02-16T22:18:35;65.85;;;25.25;;
79202;SDS011;68630;42.748;23.278;2024-02-16T22:21:32;60.63;;;24.98;;
79202;SDS011;68630;42.748;23.278;2024-02-16T22:24:39;47.43;;;20.30;;
79202;SDS011;68630;42.748;23.278;2024-02-16T22:27:49;52.90;;;23.75;;
79202;SDS011;68630;42.748;23.278;2024-02-16T22:40:53;49.33;;;22.80;;
79202;SDS011;68630;42.748;23.278;2024-02-16T22:43:26;60.88;;;24.23;;
79202;SDS011;68630;42.748;23.278;2024-02-16T22:51:59;63.10;;;24.87;;
79202;SDS011;68630;42.748;23.278;2024-02-16T22:57:35;43.73;;;18.73;;
79202;SDS011;68630;42.748;23.278;2024-02-16T23:00:25;61.60;;;26.95;;
79202;SDS011;68630;42.748;23.278;2024-02-16T23:03:09;71.87;;;29.23;;
79202;SDS011;68630;42.748;23.278;2024-02-16T23:06:05;82.67;;;33.35;;
79202;SDS011;68630;42.748;23.278;2024-02-16T23:22:07;73.33;;;29.18;;
79202;SDS011;68630;42.748;23.278;2024-02-16T23:27:58;63.60;;;26.33;;
79202;SDS011;68630;42.748;23.278;2024-02-16T23:30:45;59.35;;;27.27;;
79202;SDS011;68630;42.748;23.278;2024-02-16T23:33:14;66.75;;;27.98;;
79202;SDS011;68630;42.748;23.278;2024-02-16T23:35:43;64.30;;;25.75;;
79202;SDS011;68630;42.748;23.278;2024-02-16T23:38:11;67.53;;;27.52;;
79202;SDS011;68630;42.748;23.278;2024-02-16T23:40:43;66.12;;;26.30;;
79202;SDS011;68630;42.748;23.278;2024-02-16T23:43:12;63.65;;;27.67;;
79202;SDS011;68630;42.748;23.278;2024-02-16T23:45:44;67.62;;;26.65;;
79202;SDS011;68630;42.748;23.278;2024-02-16T23:48:20;55.15;;;23.65;;
79202;SDS011;68630;42.748;23.278;2024-02-16T23:50:50;56.95;;;24.52;;
79202;SDS011;68630;42.748;23.278;2024-02-16T23:53:23;55.38;;;23.25;;
79202;SDS011;68630;42.748;23.278;2024-02-16T23:55:58;51.42;;;22.37;;
79202;SDS011;68630;42.748;23.278;2024-02-16T23:58:29;56.98;;;23.32;;
